Davenport, WA

4:18 PM PDT on May 22, 2015 (GMT -0700)
291 @ 231 | | Change Station
CLOSE
Current Station
Personal Weather Station
Location: Ford, WA
Elevation: 1594 ft
Nearby Weather Stations

Elev 1594 ft 47.85 °N, 117.85 °W | Updated 11 seconds ago

Mostly Cloudy
Mostly Cloudy
82.8 °F
Feels Like 81 °F
N
2.7
Wind Variable Wind from NNW
Gusts 4.9 mph

Today
High -- | Low -- °F
--% Chance of Precip.
Yesterday
High -- | Low -- °F
Precip. -- in
5:07 AM 8:31 PM
Waxing Crescent, 24% visible
Pressure 29.83 in
Visibility 6.0 miles
Clouds Few 1400 ft
Scattered Clouds 7000 ft
Mostly Cloudy 8500 ft
Heat Index 81 °F
Dew Point 41 °F
Humidity 23%
Rainfall 0.00 in
Snow Depth Not available.
UV 1.0 out of 12
Pollen 8.50 out of 12
Air Quality Not available.
Flu Activity Sporadic
SPECI KSKA 222311Z AUTO 14010G22KT 6SM -RA VCTS FEW014 SCT070 BKN085 19/09 A2983 RMK AO2 LTG DSNT SE TSE11

More Conditions Fewer Conditions

Pressure 29.83 in
Visibility 6.0 miles
Clouds Few 1400 ft
Scattered Clouds 7000 ft
Mostly Cloudy 8500 ft
Heat Index 81 °F
Dew Point 41 °F
Humidity 23%
Rainfall 0.00 in
Snow Depth Not available.
UV 1.0 out of 12
Pollen 8.50 out of 12
Air Quality Not available.
Flu Activity Sporadic
SPECI KSKA 222311Z AUTO 14010G22KT 6SM -RA VCTS FEW014 SCT070 BKN085 19/09 A2983 RMK AO2 LTG DSNT SE TSE11

More Conditions Fewer Conditions

10-Day Weather Forecast

Almanac

Astronomy

May. 22, 2015 Rise Set
Actual Time
Civil Twilight
Nautical Twilight
Astronomical Twilight
Moon
Length of Visible Light
Length of Day
Tomorrow will be .
, % of the Moon is Illuminated

Today's Extremes

State Highs State Lows

Community

WunderPhotos

Upload Photos

1,823,330 photos uploaded!

WunderBlogs® & News

Nearby

Air Quality

  Air Quality AQ Index Pollutant
Not available.

Snow Depth

Station Depth Elevation

Earthquake Activity

City Distance Mag. Time & Date
Minimum magnitude displayed is 2.5.

Coastal Water Temperatures

Place Temperature

Stations

Nearby Weather Stations

Station Location Temp. Windchill Dew Point Humidity Wind Precip. Elev Updated Type